Time;durP1;ratioP1;P1;durP2;ratioP2;P2;SDS_P1;SDS_P2;PMS_P1;PMS_P2;Temp;Humidity;BMP_temperature;BMP_pressure;BME280_temperature;BME280_humidity;BME280_pressure;Samples;Min_cycle;Max_cycle;Signal;HPM_P1;HPM_P2
2021/08/06 00:00:47;;;;;;;0.50;0.50;;;12.40;93.00;;;;;;2057193;28;20186;-66
2021/08/06 00:01:48;;;;;;;0.43;0.43;;;12.40;93.00;;;;;;2056660;28;20183;-66
2021/08/06 00:02:48;;;;;;;0.50;0.50;;;12.40;93.10;;;;;;2056706;28;20206;-67
2021/08/06 00:03:49;;;;;;;0.57;0.57;;;12.40;93.10;;;;;;2056699;28;20186;-66
2021/08/06 00:04:50;;;;;;;0.70;0.70;;;12.40;93.10;;;;;;2048511;29;20211;-66
2021/08/06 00:05:54;;;;;;;0.77;0.77;;;12.40;93.00;;;;;;2048495;29;20227;-67
2021/08/06 00:06:54;;;;;;;0.85;0.85;;;12.40;92.80;;;;;;2048761;28;20180;-66
2021/08/06 00:07:55;;;;;;;1.40;0.90;;;12.40;92.70;;;;;;2056604;28;20273;-66
2021/08/06 00:08:56;;;;;;;0.60;0.60;;;12.40;92.70;;;;;;2057179;28;20278;-66
2021/08/06 00:09:57;;;;;;;8.52;1.05;;;12.30;92.70;;;;;;2057203;28;20259;-66
2021/08/06 00:10:58;;;;;;;0.57;0.57;;;12.30;92.80;;;;;;2056633;28;20183;-66
2021/08/06 00:11:59;;;;;;;0.47;0.47;;;12.30;92.80;;;;;;2056389;28;20592;-66
2021/08/06 00:12:59;;;;;;;1.07;0.70;;;12.30;92.90;;;;;;2057059;28;20246;-67
2021/08/06 00:14:01;;;;;;;0.80;0.80;;;12.20;92.90;;;;;;2057232;28;20214;-67
2021/08/06 00:15:03;;;;;;;0.73;0.73;;;12.30;92.90;;;;;;2056378;28;20554;-66
2021/08/06 00:16:04;;;;;;;0.73;0.73;;;12.20;92.90;;;;;;2056557;28;20190;-67
2021/08/06 00:17:04;;;;;;;1.73;0.60;;;12.30;92.80;;;;;;2056323;28;20175;-67
2021/08/06 00:18:05;;;;;;;0.60;0.60;;;12.30;92.90;;;;;;2057335;28;20221;-67
2021/08/06 00:19:06;;;;;;;0.90;0.90;;;12.20;93.00;;;;;;2056134;28;20848;-67
2021/08/06 00:20:07;;;;;;;0.50;0.50;;;12.20;93.00;;;;;;2056401;28;20275;-67
2021/08/06 00:21:08;;;;;;;0.80;0.80;;;12.20;93.10;;;;;;2056926;28;20178;-66
2021/08/06 00:22:09;;;;;;;0.37;0.37;;;12.20;93.10;;;;;;2056838;28;20226;-66
2021/08/06 00:23:10;;;;;;;0.60;0.60;;;12.20;93.20;;;;;;2057018;28;20254;-66
2021/08/06 00:24:11;;;;;;;0.70;0.70;;;12.20;93.20;;;;;;2056933;28;21019;-66
2021/08/06 00:25:12;;;;;;;0.60;0.60;;;12.20;93.10;;;;;;2057082;28;20199;-66
2021/08/06 00:26:13;;;;;;;0.80;0.80;;;12.20;93.10;;;;;;2056506;28;20186;-66
2021/08/06 00:27:14;;;;;;;0.50;0.50;;;12.20;93.00;;;;;;2056185;28;20187;-66
2021/08/06 00:28:14;;;;;;;0.40;0.40;;;12.20;93.10;;;;;;2056167;28;20167;-66
2021/08/06 00:29:15;;;;;;;0.33;0.33;;;12.20;93.00;;;;;;2056219;28;20508;-66
2021/08/06 00:30:16;;;;;;;0.40;0.40;;;12.20;93.00;;;;;;2056386;28;20187;-66
2021/08/06 00:31:16;;;;;;;0.60;0.60;;;12.20;93.00;;;;;;2056513;28;20198;-66
2021/08/06 00:32:17;;;;;;;3.83;0.93;;;12.30;93.00;;;;;;2057022;28;20194;-68
2021/08/06 00:33:18;;;;;;;0.40;0.40;;;12.30;93.00;;;;;;2057000;28;20202;-66
2021/08/06 00:34:18;;;;;;;0.40;0.40;;;12.30;93.10;;;;;;2056161;28;20294;-66
2021/08/06 00:35:19;;;;;;;0.90;0.67;;;12.30;93.10;;;;;;2056329;28;20534;-66
2021/08/06 00:36:20;;;;;;;1.13;0.63;;;12.30;93.20;;;;;;2056251;28;20186;-68
2021/08/06 00:37:21;;;;;;;0.70;0.70;;;12.30;93.20;;;;;;2056207;28;20225;-67
2021/08/06 00:38:21;;;;;;;0.57;0.57;;;12.30;93.30;;;;;;2056809;28;20325;-66
2021/08/06 00:39:22;;;;;;;1.10;0.50;;;12.30;93.20;;;;;;2056476;28;20199;-66
2021/08/06 00:40:24;;;;;;;1.07;0.60;;;12.40;93.10;;;;;;2056302;28;20176;-66
2021/08/06 00:41:25;;;;;;;0.63;0.55;;;12.40;93.00;;;;;;2048475;28;20650;-66
2021/08/06 00:42:26;;;;;;;0.75;0.55;;;12.40;93.00;;;;;;2056309;28;20621;-66
2021/08/06 00:43:27;;;;;;;0.70;0.67;;;12.40;92.90;;;;;;2056923;28;20179;-67
2021/08/06 00:44:28;;;;;;;0.98;0.95;;;12.50;92.90;;;;;;2056234;28;20299;-66
2021/08/06 00:45:28;;;;;;;0.33;0.33;;;12.50;92.80;;;;;;2056192;28;20249;-66
2021/08/06 00:46:29;;;;;;;0.50;0.50;;;12.50;92.70;;;;;;2056904;28;20176;-66
2021/08/06 00:47:31;;;;;;;0.80;0.80;;;12.50;92.80;;;;;;2056318;28;20857;-67
2021/08/06 00:48:32;;;;;;;0.88;0.82;;;12.40;92.70;;;;;;2048393;28;20180;-66
2021/08/06 00:49:33;;;;;;;0.50;0.50;;;12.40;92.70;;;;;;2056197;28;20634;-67
2021/08/06 00:50:33;;;;;;;0.70;0.70;;;12.40;92.80;;;;;;2048323;28;20180;-68
2021/08/06 00:51:34;;;;;;;0.30;0.30;;;12.40;92.80;;;;;;2048443;28;20246;-67
2021/08/06 00:52:35;;;;;;;0.70;0.70;;;12.40;93.30;;;;;;2048167;29;20587;-66
2021/08/06 00:53:37;;;;;;;0.43;0.43;;;12.40;92.90;;;;;;2048495;29;20188;-67
2021/08/06 00:54:38;;;;;;;0.70;0.70;;;12.50;93.00;;;;;;2048096;28;20437;-67
2021/08/06 00:55:39;;;;;;;0.67;0.60;;;12.50;92.90;;;;;;2048552;29;20184;-67
2021/08/06 00:56:39;;;;;;;1.33;0.73;;;12.50;92.90;;;;;;2056322;28;20596;-67
2021/08/06 00:57:40;;;;;;;0.37;0.37;;;12.40;93.00;;;;;;2056856;28;20266;-67
2021/08/06 00:58:41;;;;;;;0.60;0.60;;;12.40;93.00;;;;;;2056806;28;20178;-67
2021/08/06 00:59:42;;;;;;;0.87;0.60;;;12.50;93.00;;;;;;2048152;29;20270;-71
2021/08/06 01:00:47;;;;;;;0.80;0.50;;;12.50;93.00;;;;;;2032267;29;20192;-67
2021/08/06 01:02:00;;;;;;;0.55;0.40;;;12.60;93.00;;;;;;2048807;28;20182;-67
2021/08/06 01:03:22;;;;;;;0.52;0.40;;;12.60;93.10;;;;;;2056153;28;20179;-67
2021/08/06 01:05:02;;;;;;;0.57;0.57;;;12.70;93.00;;;;;;2056493;28;20163;-67
2021/08/06 01:06:08;;;;;;;0.60;0.60;;;12.70;93.00;;;;;;2056113;28;20201;-67
2021/08/06 01:07:20;;;;;;;1.40;0.80;;;12.70;93.00;;;;;;2055444;28;20171;-68
2021/08/06 01:08:29;;;;;;;0.82;0.82;;;12.70;93.00;;;;;;2056153;28;20183;-66
2021/08/06 01:09:45;;;;;;;1.48;0.47;;;12.70;92.90;;;;;;2056337;28;20179;-67
2021/08/06 01:10:53;;;;;;;0.50;0.50;;;12.70;92.80;;;;;;2048237;29;20246;-67
2021/08/06 01:11:59;;;;;;;0.63;0.63;;;12.80;92.80;;;;;;2042396;28;20263;-67
2021/08/06 01:13:02;;;;;;;0.65;0.65;;;12.80;92.70;;;;;;2049599;28;20244;-67
2021/08/06 01:14:07;;;;;;;0.50;0.50;;;12.80;92.70;;;;;;2048700;28;20254;-67
2021/08/06 01:15:11;;;;;;;0.40;0.40;;;12.80;92.60;;;;;;2048695;28;20581;-66
2021/08/06 01:16:13;;;;;;;0.38;0.38;;;12.90;92.60;;;;;;2056146;28;20191;-67
2021/08/06 01:17:16;;;;;;;0.40;0.40;;;12.90;92.50;;;;;;2048344;28;20184;-67
2021/08/06 01:18:19;;;;;;;0.55;0.55;;;13.00;92.40;;;;;;2056045;28;20190;-67
2021/08/06 01:19:31;;;;;;;0.55;0.55;;;13.00;92.30;;;;;;2040292;29;20208;-67
2021/08/06 01:20:38;;;;;;;0.60;0.60;;;12.90;92.30;;;;;;2049715;28;20191;-67
2021/08/06 01:21:45;;;;;;;0.40;0.40;;;12.90;92.30;;;;;;2056079;28;20219;-67
2021/08/06 01:23:21;;;;;;;0.60;0.60;;;12.90;92.30;;;;;;2056204;28;20167;-67
2021/08/06 01:24:23;;;;;;;0.65;0.65;;;12.90;92.20;;;;;;2056131;28;20196;-67
2021/08/06 01:25:54;;;;;;;0.73;0.70;;;13.00;92.30;;;;;;2056136;28;20194;-67
2021/08/06 01:26:56;;;;;;;0.50;0.50;;;13.00;92.40;;;;;;2056185;28;20548;-67
2021/08/06 01:27:57;;;;;;;0.55;0.55;;;13.00;92.20;;;;;;2055999;28;20215;-67
2021/08/06 01:28:58;;;;;;;1.25;1.15;;;13.00;92.10;;;;;;2056036;28;20175;-67
2021/08/06 01:29:59;;;;;;;0.38;0.38;;;12.90;92.20;;;;;;2055948;28;20194;-67
2021/08/06 01:31:00;;;;;;;0.67;0.67;;;12.90;92.30;;;;;;2048260;28;20194;-67
2021/08/06 01:32:01;;;;;;;5.57;0.70;;;12.90;92.40;;;;;;2048180;28;20199;-67
2021/08/06 01:33:02;;;;;;;0.80;0.80;;;12.90;92.50;;;;;;2048040;29;20361;-67
2021/08/06 01:34:02;;;;;;;0.70;0.70;;;12.80;92.50;;;;;;2056046;28;20179;-67
2021/08/06 01:35:07;;;;;;;0.73;0.60;;;12.90;92.60;;;;;;2056011;28;20199;-67
2021/08/06 01:36:07;;;;;;;0.40;0.40;;;12.90;92.60;;;;;;2056210;28;20185;-67
2021/08/06 01:37:08;;;;;;;0.60;0.60;;;12.90;92.50;;;;;;2056606;28;20175;-67
2021/08/06 01:38:11;;;;;;;0.73;0.53;;;12.80;92.50;;;;;;2055978;28;20218;-67
2021/08/06 01:39:12;;;;;;;0.50;0.50;;;12.90;92.40;;;;;;2048348;28;20282;-67
2021/08/06 01:40:13;;;;;;;1.10;0.93;;;12.90;92.10;;;;;;2048185;29;20180;-66
2021/08/06 01:41:40;;;;;;;0.82;0.43;;;12.80;92.00;;;;;;2048103;28;20269;-66
2021/08/06 01:43:11;;;;;;;0.50;0.50;;;12.80;92.20;;;;;;2051519;28;20186;-67
2021/08/06 01:44:33;;;;;;;0.43;0.43;;;12.80;92.50;;;;;;2052001;28;20167;-67
2021/08/06 01:45:38;;;;;;;0.32;0.32;;;12.80;92.60;;;;;;2056441;28;20191;-67
2021/08/06 01:46:47;;;;;;;0.50;0.50;;;12.80;92.50;;;;;;2056117;28;20174;-67
2021/08/06 01:47:51;;;;;;;0.45;0.45;;;12.80;92.10;;;;;;2055858;28;20178;-69
2021/08/06 01:48:58;;;;;;;0.70;0.70;;;12.90;91.70;;;;;;2055873;28;20654;-66
2021/08/06 01:50:04;;;;;;;0.40;0.40;;;12.90;91.80;;;;;;2056043;28;20163;-67
2021/08/06 01:51:08;;;;;;;0.57;0.57;;;12.90;92.00;;;;;;2050534;28;20552;-67
2021/08/06 01:52:14;;;;;;;0.73;0.73;;;12.90;91.80;;;;;;2054843;28;20282;-67
2021/08/06 01:53:19;;;;;;;0.45;0.45;;;12.90;91.70;;;;;;2056799;28;20181;-67
2021/08/06 01:54:22;;;;;;;0.50;0.50;;;13.00;91.90;;;;;;2056753;28;20159;-67
2021/08/06 01:55:23;;;;;;;0.35;0.35;;;12.90;92.00;;;;;;2048201;28;20694;-67
2021/08/06 01:56:24;;;;;;;0.90;0.90;;;13.00;91.90;;;;;;2048089;28;20315;-67
2021/08/06 01:57:26;;;;;;;1.55;1.02;;;13.10;91.80;;;;;;2056006;28;20179;-69
2021/08/06 01:58:27;;;;;;;0.50;0.50;;;13.10;91.60;;;;;;2048173;28;20278;-67
2021/08/06 01:59:29;;;;;;;0.63;0.63;;;13.20;91.30;;;;;;2055791;28;20258;-67
2021/08/06 02:00:31;;;;;;;0.80;0.80;;;13.20;91.10;;;;;;2064164;28;20221;-67
2021/08/06 02:01:32;;;;;;;0.50;0.50;;;13.20;91.90;;;;;;2055974;28;20194;-67
2021/08/06 02:02:37;;;;;;;0.93;0.73;;;13.20;91.50;;;;;;2056094;28;20179;-67
2021/08/06 02:03:38;;;;;;;0.25;0.25;;;13.20;91.10;;;;;;2056514;28;20530;-67
2021/08/06 02:04:39;;;;;;;0.30;0.30;;;13.20;90.90;;;;;;2055894;28;20183;-67
2021/08/06 02:05:40;;;;;;;0.40;0.40;;;13.20;90.90;;;;;;2063799;28;20301;-68
2021/08/06 02:06:43;;;;;;;0.57;0.57;;;13.20;90.80;;;;;;2055981;28;20479;-66
2021/08/06 02:07:44;;;;;;;0.45;0.45;;;13.20;90.80;;;;;;2063898;28;20201;-67
2021/08/06 02:08:46;;;;;;;0.83;0.83;;;13.20;90.90;;;;;;2064656;28;20653;-67
2021/08/06 02:09:47;;;;;;;1.08;0.32;;;13.20;91.10;;;;;;2063848;28;20179;-66
2021/08/06 02:10:48;;;;;;;0.50;0.50;;;13.20;91.10;;;;;;2063717;28;20175;-67
2021/08/06 02:11:51;;;;;;;0.40;0.40;;;13.30;91.10;;;;;;2063687;28;20663;-69
2021/08/06 02:12:53;;;;;;;0.77;0.77;;;13.30;91.10;;;;;;2064027;28;20175;-67
2021/08/06 02:13:54;;;;;;;0.47;0.47;;;13.30;91.20;;;;;;2064011;28;20254;-67
2021/08/06 02:14:55;;;;;;;0.95;0.70;;;13.30;91.30;;;;;;2064040;28;20203;-67
2021/08/06 02:15:56;;;;;;;0.30;0.30;;;13.30;91.30;;;;;;2063919;28;20239;-67
2021/08/06 02:16:57;;;;;;;0.70;0.70;;;13.30;91.20;;;;;;2063766;28;20190;-68
2021/08/06 02:17:58;;;;;;;0.60;0.60;;;13.30;91.30;;;;;;2055997;28;20183;-66
2021/08/06 02:19:00;;;;;;;2.37;0.93;;;13.30;91.30;;;;;;2049277;28;20322;-67
2021/08/06 02:20:04;;;;;;;0.75;0.43;;;13.30;91.10;;;;;;2049461;28;20193;-68
2021/08/06 02:21:11;;;;;;;0.70;0.55;;;13.30;91.10;;;;;;2057655;28;20606;-67
2021/08/06 02:22:13;;;;;;;1.65;0.68;;;13.30;91.30;;;;;;2058006;28;20178;-67
2021/08/06 02:23:14;;;;;;;1.30;0.52;;;13.30;91.20;;;;;;2057326;28;20773;-67
2021/08/06 02:24:15;;;;;;;0.50;0.50;;;13.40;91.10;;;;;;2057296;28;20189;-67
2021/08/06 02:25:20;;;;;;;0.40;0.40;;;13.40;90.80;;;;;;2065390;28;20196;-67
2021/08/06 02:26:22;;;;;;;5.88;0.70;;;13.40;90.80;;;;;;2073435;28;20769;-67
2021/08/06 02:27:25;;;;;;;0.50;0.50;;;13.40;90.90;;;;;;2065257;28;20230;-66
2021/08/06 02:28:26;;;;;;;0.50;0.50;;;13.40;90.90;;;;;;2057643;28;20182;-67
2021/08/06 02:29:29;;;;;;;0.55;0.55;;;13.40;91.20;;;;;;2057431;28;20554;-67
2021/08/06 02:30:31;;;;;;;0.40;0.40;;;13.40;91.30;;;;;;2057668;28;20226;-67
2021/08/06 02:31:34;;;;;;;1.17;0.60;;;13.30;91.30;;;;;;2057341;28;20273;-67
2021/08/06 02:32:35;;;;;;;0.77;0.65;;;13.40;91.20;;;;;;2057303;28;20253;-67
2021/08/06 02:33:37;;;;;;;0.85;0.85;;;13.40;91.50;;;;;;2057601;28;20278;-67
2021/08/06 02:34:38;;;;;;;1.20;0.85;;;13.40;91.60;;;;;;2065152;28;20349;-67
2021/08/06 02:35:39;;;;;;;0.63;0.63;;;13.40;91.50;;;;;;2065183;28;20209;-67
2021/08/06 02:36:41;;;;;;;0.60;0.60;;;13.40;91.50;;;;;;2057277;28;20265;-67
2021/08/06 02:37:45;;;;;;;0.38;0.38;;;13.40;91.50;;;;;;2065103;28;20174;-68
2021/08/06 02:38:45;;;;;;;0.60;0.60;;;13.40;91.40;;;;;;2065843;28;20191;-67
2021/08/06 02:39:46;;;;;;;0.43;0.43;;;13.40;91.40;;;;;;2065910;28;20281;-67
2021/08/06 02:40:47;;;;;;;0.30;0.30;;;13.50;91.40;;;;;;2065267;28;20260;-68
2021/08/06 02:41:48;;;;;;;0.50;0.50;;;13.40;91.30;;;;;;2065374;28;20175;-68
2021/08/06 02:42:51;;;;;;;0.90;0.77;;;13.40;91.50;;;;;;2065817;28;20183;-67
2021/08/06 02:43:51;;;;;;;0.60;0.60;;;13.40;91.40;;;;;;2065789;28;20178;-67
2021/08/06 02:44:54;;;;;;;0.60;0.60;;;13.40;91.40;;;;;;2065210;28;20181;-67
2021/08/06 02:45:54;;;;;;;1.58;0.82;;;13.40;91.40;;;;;;2065139;28;20171;-67
2021/08/06 02:46:55;;;;;;;0.57;0.57;;;13.40;91.30;;;;;;2057164;28;20647;-67
2021/08/06 02:47:56;;;;;;;0.80;0.80;;;13.40;91.30;;;;;;2057179;28;20748;-67
2021/08/06 02:48:57;;;;;;;1.80;1.27;;;13.40;91.20;;;;;;2065285;28;20203;-67
2021/08/06 02:49:57;;;;;;;0.53;0.53;;;13.40;91.30;;;;;;2065566;28;20198;-67
2021/08/06 02:50:58;;;;;;;0.67;0.67;;;13.30;91.30;;;;;;2065214;28;20182;-67
2021/08/06 02:52:01;;;;;;;0.63;0.63;;;13.20;91.60;;;;;;2065265;28;20183;-67
2021/08/06 02:53:02;;;;;;;0.60;0.60;;;13.20;91.80;;;;;;2052025;28;20659;-67
2021/08/06 02:54:03;;;;;;;0.80;0.50;;;13.10;91.90;;;;;;2056990;28;20210;-67
2021/08/06 02:55:04;;;;;;;0.53;0.53;;;13.10;91.90;;;;;;2073167;28;20198;-66
2021/08/06 02:56:05;;;;;;;0.50;0.50;;;13.10;92.00;;;;;;2065171;28;20186;-67
2021/08/06 02:57:06;;;;;;;0.45;0.45;;;13.00;91.80;;;;;;2056992;28;20361;-67
2021/08/06 02:58:07;;;;;;;0.50;0.50;;;13.10;91.90;;;;;;2065201;28;20190;-67
2021/08/06 02:59:07;;;;;;;0.30;0.30;;;13.00;91.80;;;;;;2065636;28;20242;-68
2021/08/06 03:00:09;;;;;;;1.13;0.73;;;13.00;91.90;;;;;;2065758;28;20201;-67
2021/08/06 03:01:10;;;;;;;0.60;0.60;;;12.90;92.00;;;;;;2064888;28;20179;-67
2021/08/06 03:02:11;;;;;;;1.30;0.60;;;12.80;92.00;;;;;;2065251;28;20174;-67
2021/08/06 03:03:11;;;;;;;0.63;0.63;;;12.80;92.20;;;;;;2065762;28;20174;-67
2021/08/06 03:04:12;;;;;;;0.87;0.70;;;12.70;92.20;;;;;;2065766;28;20179;-68
2021/08/06 03:05:13;;;;;;;0.80;0.80;;;12.70;92.30;;;;;;2064870;28;20293;-67
2021/08/06 03:06:13;;;;;;;0.63;0.63;;;12.80;92.20;;;;;;2065276;28;20249;-67
2021/08/06 03:07:14;;;;;;;0.70;0.70;;;12.70;92.30;;;;;;2064995;28;20586;-67
2021/08/06 03:08:15;;;;;;;0.67;0.67;;;12.70;92.30;;;;;;2065375;28;20178;-67
2021/08/06 03:09:17;;;;;;;0.70;0.60;;;12.70;92.30;;;;;;2064940;28;20557;-67
2021/08/06 03:10:19;;;;;;;0.95;0.65;;;12.70;92.30;;;;;;2064970;28;20183;-67
2021/08/06 03:11:20;;;;;;;0.52;0.52;;;12.70;92.30;;;;;;2057319;28;20186;-67
2021/08/06 03:12:21;;;;;;;0.50;0.50;;;12.70;92.20;;;;;;2065093;28;20233;-67
2021/08/06 03:13:22;;;;;;;0.50;0.50;;;12.70;92.20;;;;;;2065017;28;20182;-67
2021/08/06 03:14:22;;;;;;;0.80;0.50;;;12.70;92.00;;;;;;2065272;28;20261;-67
2021/08/06 03:15:23;;;;;;;0.50;0.50;;;12.70;92.10;;;;;;2064781;28;20264;-67
2021/08/06 03:16:24;;;;;;;0.63;0.60;;;12.70;92.10;;;;;;2057164;28;20193;-68
2021/08/06 03:17:25;;;;;;;0.80;0.63;;;12.80;92.20;;;;;;2057023;28;20175;-67
2021/08/06 03:18:25;;;;;;;0.50;0.50;;;12.80;92.20;;;;;;2057030;28;20179;-67
2021/08/06 03:19:26;;;;;;;0.50;0.50;;;12.90;92.00;;;;;;2065002;28;20580;-67
2021/08/06 03:20:28;;;;;;;0.50;0.50;;;12.90;91.90;;;;;;2065115;28;20244;-67
2021/08/06 03:21:28;;;;;;;0.70;0.40;;;12.90;91.80;;;;;;2065625;28;20550;-67
2021/08/06 03:22:29;;;;;;;1.93;1.20;;;12.90;91.80;;;;;;2064822;28;20182;-67
2021/08/06 03:23:30;;;;;;;0.80;0.73;;;12.90;91.70;;;;;;2057077;28;20662;-67
2021/08/06 03:24:30;;;;;;;0.83;0.73;;;12.90;91.90;;;;;;2064901;28;20202;-67
2021/08/06 03:25:31;;;;;;;1.20;0.73;;;12.90;92.00;;;;;;2064916;28;20679;-70
2021/08/06 03:26:32;;;;;;;0.63;0.63;;;12.80;92.00;;;;;;2064838;28;20182;-67
2021/08/06 03:27:33;;;;;;;0.60;0.60;;;12.90;92.20;;;;;;2065455;28;20244;-67
2021/08/06 03:28:34;;;;;;;0.40;0.40;;;12.90;92.30;;;;;;2056659;28;20183;-67
2021/08/06 03:29:34;;;;;;;0.50;0.50;;;12.80;92.40;;;;;;2056850;28;20581;-68
2021/08/06 03:30:37;;;;;;;0.87;0.87;;;12.80;92.30;;;;;;2065018;28;20174;-67
2021/08/06 03:31:37;;;;;;;0.52;0.52;;;12.80;92.40;;;;;;2065502;28;20313;-67
2021/08/06 03:32:40;;;;;;;0.40;0.40;;;12.80;92.60;;;;;;2064908;28;20186;-67
2021/08/06 03:33:40;;;;;;;0.50;0.50;;;12.80;92.70;;;;;;2064844;28;20178;-67
2021/08/06 03:34:41;;;;;;;0.50;0.50;;;12.80;92.70;;;;;;2064803;28;20224;-67
2021/08/06 03:35:42;;;;;;;0.90;0.70;;;12.80;92.90;;;;;;2065529;28;20185;-67
2021/08/06 03:36:43;;;;;;;0.63;0.63;;;12.80;93.00;;;;;;2064800;28;20186;-68
2021/08/06 03:37:44;;;;;;;1.40;0.63;;;12.80;93.00;;;;;;2048876;28;20211;-67
2021/08/06 03:38:45;;;;;;;2.72;0.63;;;12.80;93.00;;;;;;2056812;28;20578;-67
2021/08/06 03:39:45;;;;;;;0.73;0.63;;;12.80;93.00;;;;;;2065413;28;20202;-67
2021/08/06 03:40:47;;;;;;;1.47;0.53;;;12.80;93.10;;;;;;2065348;28;20653;-67
2021/08/06 03:41:48;;;;;;;0.82;0.60;;;12.70;93.40;;;;;;2064755;28;20201;-67
2021/08/06 03:42:49;;;;;;;0.40;0.40;;;12.60;93.40;;;;;;2064751;28;20179;-67
2021/08/06 03:43:49;;;;;;;1.03;1.03;;;12.50;93.70;;;;;;2064866;28;20527;-66
2021/08/06 03:44:50;;;;;;;0.60;0.60;;;12.60;93.80;;;;;;2065307;28;20197;-69
2021/08/06 03:45:51;;;;;;;0.50;0.50;;;12.60;93.80;;;;;;2065475;28;20175;-67
2021/08/06 03:46:51;;;;;;;1.27;1.03;;;12.60;93.60;;;;;;2064549;28;20190;-67
2021/08/06 03:47:54;;;;;;;1.33;0.90;;;12.60;93.70;;;;;;2064901;28;20184;-66
2021/08/06 03:48:54;;;;;;;0.70;0.70;;;12.60;93.70;;;;;;2065406;28;20527;-67
2021/08/06 03:49:55;;;;;;;0.90;0.90;;;12.60;93.70;;;;;;2065408;28;20266;-67
2021/08/06 03:50:56;;;;;;;1.03;0.73;;;12.60;93.70;;;;;;2065211;28;20743;-68
2021/08/06 03:51:56;;;;;;;0.67;0.67;;;12.70;93.70;;;;;;2065468;28;20190;-67
2021/08/06 03:52:57;;;;;;;0.67;0.67;;;12.70;93.60;;;;;;2065314;28;20510;-68
2021/08/06 03:53:58;;;;;;;0.53;0.53;;;12.80;93.50;;;;;;2065441;28;20206;-66
2021/08/06 03:55:00;;;;;;;0.50;0.50;;;12.80;93.60;;;;;;2065043;28;20256;-67
2021/08/06 03:56:00;;;;;;;1.08;0.80;;;12.80;93.60;;;;;;2064727;28;20564;-67
2021/08/06 03:57:01;;;;;;;0.70;0.60;;;12.80;93.50;;;;;;2058757;28;20456;-68
2021/08/06 03:58:03;;;;;;;0.50;0.50;;;12.90;93.40;;;;;;2056493;28;20179;-67
2021/08/06 03:59:04;;;;;;;0.70;0.70;;;12.90;93.30;;;;;;2057330;28;20595;-67
2021/08/06 04:00:05;;;;;;;0.60;0.60;;;12.90;93.30;;;;;;2057051;28;20179;-67
2021/08/06 04:01:06;;;;;;;0.60;0.60;;;12.90;93.30;;;;;;2057122;28;20249;-68
2021/08/06 04:02:07;;;;;;;0.73;0.73;;;12.90;93.30;;;;;;2057199;28;20222;-67
2021/08/06 04:03:08;;;;;;;0.53;0.53;;;12.90;93.40;;;;;;2057197;28;20589;-67
2021/08/06 04:04:09;;;;;;;0.47;0.47;;;12.90;93.40;;;;;;2048311;29;20174;-68
2021/08/06 04:05:10;;;;;;;0.70;0.70;;;13.00;93.40;;;;;;2048449;28;20296;-68
2021/08/06 04:06:11;;;;;;;1.60;0.77;;;13.00;93.40;;;;;;2056488;28;20179;-67
2021/08/06 04:07:12;;;;;;;1.43;0.80;;;13.10;93.30;;;;;;2040580;28;20191;-69
2021/08/06 04:08:12;;;;;;;0.60;0.60;;;13.10;93.10;;;;;;2048468;29;20172;-67
2021/08/06 04:09:13;;;;;;;0.70;0.70;;;13.20;93.00;;;;;;2056970;28;20175;-67
2021/08/06 04:10:21;;;;;;;0.80;0.80;;;13.20;93.20;;;;;;2056485;28;20167;-67
2021/08/06 04:11:21;;;;;;;0.73;0.73;;;13.10;93.20;;;;;;2056605;28;20172;-67
2021/08/06 04:12:22;;;;;;;0.83;0.60;;;13.10;93.40;;;;;;2056348;28;20241;-67
2021/08/06 04:13:23;;;;;;;0.50;0.50;;;13.10;93.40;;;;;;2057075;28;20214;-68
2021/08/06 04:14:23;;;;;;;0.63;0.63;;;13.10;93.30;;;;;;2056242;28;20179;-67
2021/08/06 04:15:24;;;;;;;1.03;0.90;;;13.10;93.30;;;;;;2048490;29;20586;-67
2021/08/06 04:16:25;;;;;;;0.70;0.70;;;13.10;93.30;;;;;;2040610;29;20189;-67
2021/08/06 04:17:26;;;;;;;0.63;0.63;;;13.10;93.50;;;;;;2048549;29;20655;-67
2021/08/06 04:18:27;;;;;;;0.73;0.73;;;13.10;93.60;;;;;;2048373;28;20315;-68
2021/08/06 04:19:27;;;;;;;0.63;0.63;;;13.20;93.60;;;;;;2056239;28;20214;-66
2021/08/06 04:20:28;;;;;;;0.47;0.47;;;13.20;93.50;;;;;;2056919;28;20642;-68
2021/08/06 04:21:29;;;;;;;0.90;0.90;;;13.20;93.40;;;;;;2056885;28;20179;-67
2021/08/06 04:22:30;;;;;;;0.30;0.30;;;13.20;93.50;;;;;;2056490;28;20180;-67
2021/08/06 04:23:30;;;;;;;0.70;0.70;;;13.20;93.60;;;;;;2056607;28;20190;-67
2021/08/06 04:24:31;;;;;;;0.90;0.87;;;13.20;93.70;;;;;;2056172;28;20221;-67
2021/08/06 04:25:32;;;;;;;0.63;0.63;;;13.20;93.70;;;;;;2056607;28;20195;-67
2021/08/06 04:26:32;;;;;;;0.87;0.83;;;13.30;93.80;;;;;;2057082;28;20922;-66
2021/08/06 04:27:34;;;;;;;0.83;0.83;;;13.30;93.80;;;;;;2056898;28;20329;-67
2021/08/06 04:28:35;;;;;;;0.50;0.50;;;13.40;93.80;;;;;;2056867;28;20190;-67
2021/08/06 04:29:35;;;;;;;0.75;0.70;;;13.40;93.70;;;;;;2057037;28;20557;-67
2021/08/06 04:30:36;;;;;;;0.50;0.50;;;13.40;93.60;;;;;;2056229;28;20187;-67
2021/08/06 04:31:37;;;;;;;0.63;0.63;;;13.50;93.60;;;;;;2056475;28;20183;-67
2021/08/06 04:32:38;;;;;;;0.27;0.27;;;13.50;93.40;;;;;;2048427;29;20694;-67
2021/08/06 04:33:39;;;;;;;0.80;0.80;;;13.50;93.40;;;;;;2056621;28;20191;-67
2021/08/06 04:34:39;;;;;;;0.60;0.60;;;13.50;93.40;;;;;;2056904;28;20187;-66
2021/08/06 04:35:40;;;;;;;0.50;0.50;;;13.50;93.40;;;;;;2056929;28;20198;-67
2021/08/06 04:36:41;;;;;;;0.47;0.47;;;13.50;93.40;;;;;;2056825;28;20274;-67
2021/08/06 04:37:50;;;;;;;0.47;0.47;;;13.50;93.40;;;;;;2056776;28;20625;-67
2021/08/06 04:38:50;;;;;;;0.30;0.30;;;13.50;93.50;;;;;;2056213;28;20168;-67
2021/08/06 04:39:51;;;;;;;0.30;0.30;;;13.50;93.50;;;;;;2056311;28;20262;-67
2021/08/06 04:40:52;;;;;;;0.37;0.37;;;13.60;93.50;;;;;;2056092;28;20175;-67
2021/08/06 04:41:53;;;;;;;0.70;0.57;;;13.60;93.50;;;;;;2055696;28;20180;-67
2021/08/06 04:42:54;;;;;;;0.20;0.20;;;13.70;93.40;;;;;;2056010;28;20171;-67
2021/08/06 04:43:54;;;;;;;0.60;0.60;;;13.70;93.40;;;;;;2056166;28;20183;-67
2021/08/06 04:44:55;;;;;;;0.33;0.33;;;13.70;93.30;;;;;;2056427;28;20194;-67
2021/08/06 04:45:56;;;;;;;0.50;0.50;;;13.70;93.40;;;;;;2056205;28;20609;-67
2021/08/06 04:46:56;;;;;;;0.20;0.20;;;13.60;93.40;;;;;;2055986;28;20186;-67
2021/08/06 04:48:00;;;;;;;1.30;0.50;;;13.60;93.50;;;;;;2056722;28;20167;-67
2021/08/06 04:49:01;;;;;;;0.73;0.73;;;13.60;93.50;;;;;;2056706;28;20590;-67
2021/08/06 04:50:03;;;;;;;0.47;0.47;;;13.60;93.60;;;;;;2056529;28;20215;-67
2021/08/06 04:51:03;;;;;;;0.57;0.57;;;13.60;93.70;;;;;;2056841;28;20187;-67
2021/08/06 04:52:04;;;;;;;0.57;0.57;;;13.50;93.80;;;;;;2056593;28;20183;-66
2021/08/06 04:53:05;;;;;;;0.63;0.20;;;13.60;93.80;;;;;;2056426;28;20246;-66
2021/08/06 04:54:06;;;;;;;0.50;0.50;;;13.60;93.70;;;;;;2047818;28;20509;-67
2021/08/06 04:55:07;;;;;;;0.40;0.40;;;13.60;93.70;;;;;;2040013;29;20212;-67
2021/08/06 04:56:09;;;;;;;0.40;0.40;;;13.70;93.70;;;;;;2047847;28;20714;-67
2021/08/06 04:57:10;;;;;;;1.48;0.70;;;13.70;93.70;;;;;;2047859;29;20540;-67
2021/08/06 04:58:11;;;;;;;0.60;0.60;;;13.70;93.60;;;;;;2032146;29;20271;-67
2021/08/06 04:59:12;;;;;;;0.73;0.65;;;13.70;93.60;;;;;;2039949;29;20291;-67
2021/08/06 05:00:13;;;;;;;0.40;0.40;;;13.80;93.60;;;;;;2048550;28;20176;-67
2021/08/06 05:01:14;;;;;;;0.30;0.30;;;13.80;93.50;;;;;;2048697;28;20520;-67
2021/08/06 05:02:14;;;;;;;0.47;0.47;;;13.80;93.50;;;;;;2047892;29;20185;-67
2021/08/06 05:03:15;;;;;;;0.30;0.30;;;13.80;93.50;;;;;;2048086;29;20615;-67
2021/08/06 05:04:16;;;;;;;0.50;0.50;;;13.70;93.60;;;;;;2047844;29;20234;-68
2021/08/06 05:05:16;;;;;;;0.40;0.40;;;13.70;93.70;;;;;;2047989;29;20781;-67
2021/08/06 05:06:17;;;;;;;0.70;0.60;;;13.70;93.60;;;;;;2047893;29;20211;-67
2021/08/06 05:07:18;;;;;;;0.40;0.40;;;13.70;93.60;;;;;;2047918;29;20266;-67
2021/08/06 05:08:19;;;;;;;0.45;0.45;;;13.70;93.60;;;;;;2048600;28;20252;-67
2021/08/06 05:09:19;;;;;;;0.50;0.50;;;13.60;93.70;;;;;;2047980;29;20208;-67
2021/08/06 05:10:23;;;;;;;0.50;0.50;;;13.60;93.80;;;;;;2047932;29;20211;-67
2021/08/06 05:11:23;;;;;;;0.95;0.68;;;13.60;93.80;;;;;;2047993;29;20190;-67
2021/08/06 05:12:24;;;;;;;0.40;0.40;;;13.70;93.80;;;;;;2047911;29;20210;-67
2021/08/06 05:13:26;;;;;;;1.63;0.90;;;13.70;93.60;;;;;;2048493;28;20195;-67
2021/08/06 05:14:26;;;;;;;0.55;0.55;;;13.70;93.50;;;;;;2048462;28;20192;-67
2021/08/06 05:15:27;;;;;;;0.40;0.40;;;13.70;93.30;;;;;;2048405;29;20290;-67
2021/08/06 05:16:28;;;;;;;0.30;0.30;;;13.70;93.10;;;;;;2048403;29;20215;-67
2021/08/06 05:17:28;;;;;;;0.40;0.40;;;13.70;92.90;;;;;;2039844;29;20184;-67
2021/08/06 05:18:29;;;;;;;0.30;0.30;;;13.80;93.00;;;;;;2039795;29;20183;-67
2021/08/06 05:19:30;;;;;;;1.83;0.67;;;13.80;93.20;;;;;;2047724;29;20706;-67
2021/08/06 05:20:30;;;;;;;1.10;0.70;;;13.70;93.10;;;;;;2039923;29;20186;-67
2021/08/06 05:21:31;;;;;;;0.60;0.60;;;13.80;93.20;;;;;;2047927;29;20186;-67
2021/08/06 05:22:32;;;;;;;0.40;0.40;;;13.80;93.10;;;;;;2048510;28;20196;-68
2021/08/06 05:23:33;;;;;;;1.17;0.90;;;13.80;93.10;;;;;;2048411;29;20214;-67
2021/08/06 05:24:34;;;;;;;0.90;0.90;;;13.90;93.00;;;;;;2047705;29;20278;-67